createdAt,value
2023-03-31T00:01:01.710Z,7.20
2023-03-31T00:03:29.323Z,7.70
2023-03-31T00:05:59.284Z,7.38
2023-03-31T00:08:30.750Z,5.75
2023-03-31T00:11:00.869Z,7.38
2023-03-31T00:13:29.464Z,6.53
2023-03-31T00:16:03.098Z,7.18
2023-03-31T00:18:31.283Z,6.75
2023-03-31T00:21:29.855Z,7.28
2023-03-31T00:24:00.336Z,6.53
2023-03-31T00:26:29.519Z,6.97
2023-03-31T00:28:58.101Z,8.23
2023-03-31T00:31:27.677Z,6.95
2023-03-31T00:33:55.912Z,7.45
2023-03-31T00:36:30.136Z,6.43
2023-03-31T00:39:00.420Z,7.05
2023-03-31T00:41:31.171Z,8.30
2023-03-31T00:44:18.983Z,7.20
2023-03-31T00:47:15.993Z,8.23
2023-03-31T00:49:51.862Z,7.70
2023-03-31T00:52:27.278Z,7.90
2023-03-31T00:54:59.233Z,7.30
2023-03-31T00:57:32.648Z,7.38
2023-03-31T01:00:14.307Z,6.80
2023-03-31T01:02:52.693Z,7.40
2023-03-31T01:05:24.282Z,7.43
2023-03-31T01:07:53.221Z,7.32
2023-03-31T01:10:22.096Z,8.68
2023-03-31T01:12:53.900Z,7.13
2023-03-31T01:15:21.705Z,8.13
2023-03-31T01:17:51.311Z,6.80
2023-03-31T01:20:55.873Z,7.07
2023-03-31T01:23:31.810Z,7.38
2023-03-31T01:26:27.267Z,5.70
2023-03-31T01:29:13.393Z,6.32
2023-03-31T01:32:01.932Z,5.45
2023-03-31T01:34:54.198Z,6.95
2023-03-31T01:37:48.708Z,5.22
2023-03-31T01:40:24.397Z,5.38
2023-03-31T01:43:10.256Z,6.70
2023-03-31T01:46:23.001Z,7.07
2023-03-31T01:49:09.624Z,6.55
2023-03-31T01:51:56.411Z,7.13
2023-03-31T01:54:39.412Z,7.15
2023-03-31T01:57:31.980Z,7.00
2023-03-31T02:00:06.062Z,6.68
2023-03-31T02:03:05.107Z,5.85
2023-03-31T02:05:41.326Z,7.63
2023-03-31T02:08:17.077Z,5.78
2023-03-31T02:10:46.657Z,5.95
2023-03-31T02:13:17.079Z,5.75
2023-03-31T02:15:48.227Z,5.90
2023-03-31T02:18:19.272Z,7.22
2023-03-31T02:20:50.649Z,6.90
2023-03-31T02:23:23.210Z,5.55
2023-03-31T02:26:01.041Z,6.70
2023-03-31T02:28:29.435Z,5.85
2023-03-31T02:31:06.622Z,5.65
2023-03-31T02:33:34.417Z,6.07
2023-03-31T02:36:02.803Z,7.10
2023-03-31T02:38:36.107Z,6.25
2023-03-31T02:41:06.811Z,5.88
2023-03-31T02:43:34.690Z,5.68
2023-03-31T02:46:02.175Z,5.35
2023-03-31T02:48:37.940Z,6.80
2023-03-31T02:51:09.008Z,4.80
2023-03-31T02:54:12.389Z,6.13
2023-03-31T02:57:14.005Z,5.13
2023-03-31T02:59:47.469Z,6.68
2023-03-31T03:02:51.375Z,5.40
2023-03-31T03:05:22.013Z,5.63
2023-03-31T03:08:37.891Z,5.72
2023-03-31T03:11:18.115Z,4.78
2023-03-31T03:13:51.905Z,5.95
2023-03-31T03:16:30.464Z,5.75
2023-03-31T03:19:00.961Z,5.38
2023-03-31T03:21:29.766Z,4.93
2023-03-31T03:23:57.538Z,6.47
2023-03-31T03:26:28.189Z,5.20
2023-03-31T03:28:56.760Z,5.53
2023-03-31T03:31:26.209Z,4.72
2023-03-31T03:33:54.136Z,4.47
2023-03-31T03:36:23.140Z,5.38
2023-03-31T03:38:51.158Z,5.40
2023-03-31T03:41:18.671Z,5.05
2023-03-31T03:43:46.266Z,4.40
2023-03-31T03:46:13.727Z,5.40
2023-03-31T03:48:41.554Z,3.70
2023-03-31T03:51:09.004Z,6.68
2023-03-31T03:53:36.611Z,4.90
2023-03-31T03:56:04.490Z,5.18
2023-03-31T03:58:32.243Z,4.68
2023-03-31T04:00:59.609Z,5.30
2023-03-31T04:03:27.341Z,4.22
2023-03-31T04:05:54.768Z,4.78
2023-03-31T04:10:51.412Z,5.78
2023-03-31T04:13:20.251Z,5.75
2023-03-31T04:15:47.756Z,3.85
2023-03-31T04:18:24.494Z,4.47
2023-03-31T04:21:05.756Z,4.70
2023-03-31T04:23:35.289Z,5.38
2023-03-31T04:26:04.031Z,5.72
2023-03-31T04:28:35.114Z,4.82
2023-03-31T04:31:06.329Z,4.68
2023-03-31T04:33:38.808Z,4.47
2023-03-31T04:36:17.782Z,5.05
2023-03-31T04:38:51.169Z,5.63
2023-03-31T04:41:19.125Z,4.53
2023-03-31T04:43:46.601Z,5.28
2023-03-31T04:46:14.353Z,4.82
2023-03-31T04:48:42.027Z,4.95
2023-03-31T04:51:10.699Z,4.00
2023-03-31T04:53:38.107Z,4.10
2023-03-31T04:56:06.529Z,6.63
2023-03-31T04:58:34.204Z,4.53
2023-03-31T05:01:01.728Z,4.50
2023-03-31T05:03:29.240Z,5.10
2023-03-31T05:05:56.826Z,4.68
2023-03-31T05:10:51.444Z,5.28
2023-03-31T05:15:48.182Z,4.38
2023-03-31T05:18:15.824Z,4.43
2023-03-31T05:20:43.341Z,5.38
2023-03-31T05:23:10.857Z,4.18
2023-03-31T05:25:38.574Z,3.65
2023-03-31T05:28:06.239Z,3.95
2023-03-31T05:30:33.722Z,3.72
2023-03-31T05:35:30.032Z,4.53
2023-03-31T05:37:57.448Z,4.07
2023-03-31T05:40:24.891Z,3.95
2023-03-31T05:45:19.729Z,4.80
2023-03-31T05:47:47.159Z,3.80
2023-03-31T05:50:14.986Z,4.07
2023-03-31T05:52:42.559Z,4.57
2023-03-31T05:55:10.674Z,5.93
2023-03-31T05:57:38.170Z,4.43
2023-03-31T06:00:06.634Z,4.70
2023-03-31T06:02:34.233Z,3.88
2023-03-31T06:05:01.751Z,3.55
2023-03-31T06:07:29.393Z,3.60
2023-03-31T06:09:56.997Z,4.45
2023-03-31T06:12:24.516Z,3.78
2023-03-31T06:14:52.013Z,4.00
2023-03-31T06:19:46.846Z,3.75
2023-03-31T06:22:14.230Z,3.92
2023-03-31T06:24:41.733Z,4.40
2023-03-31T06:29:36.795Z,3.65
2023-03-31T06:32:05.296Z,3.95
2023-03-31T06:34:32.976Z,3.80
2023-03-31T06:37:02.496Z,3.72
2023-03-31T06:39:33.419Z,4.43
2023-03-31T06:42:01.330Z,4.20
2023-03-31T06:44:29.140Z,5.40
2023-03-31T06:46:56.919Z,3.33
2023-03-31T06:49:24.393Z,3.90
2023-03-31T06:54:19.980Z,5.38
2023-03-31T06:59:15.072Z,3.72
2023-03-31T07:01:42.933Z,3.63
2023-03-31T07:04:10.592Z,3.55
2023-03-31T07:06:38.004Z,3.95
2023-03-31T07:09:05.886Z,4.15
2023-03-31T07:11:33.326Z,3.65
2023-03-31T07:14:02.129Z,3.95
2023-03-31T07:16:29.712Z,4.32
2023-03-31T07:18:58.090Z,5.78
2023-03-31T07:21:26.526Z,3.85
2023-03-31T07:23:54.012Z,4.03
2023-03-31T07:28:49.080Z,4.72
2023-03-31T07:31:16.629Z,5.57
2023-03-31T07:33:44.214Z,5.25
2023-03-31T07:36:13.839Z,4.35
2023-03-31T07:38:43.899Z,4.20
2023-03-31T07:41:17.936Z,4.47
2023-03-31T07:43:46.402Z,4.82
2023-03-31T07:46:26.126Z,4.80
2023-03-31T07:48:56.545Z,4.22
2023-03-31T07:51:26.675Z,4.43
2023-03-31T07:53:54.395Z,4.07
2023-03-31T07:56:24.306Z,3.88
2023-03-31T07:58:55.215Z,4.22
2023-03-31T08:01:26.311Z,4.18
2023-03-31T08:03:55.773Z,4.30
2023-03-31T08:06:25.274Z,3.88
2023-03-31T08:08:53.041Z,3.53
2023-03-31T08:11:21.489Z,4.05
2023-03-31T08:13:49.076Z,4.30
2023-03-31T08:16:16.637Z,4.07
2023-03-31T08:18:44.090Z,3.55
2023-03-31T08:21:11.751Z,3.10
2023-03-31T08:23:39.191Z,3.45
2023-03-31T08:26:22.012Z,3.92
2023-03-31T08:28:49.709Z,3.65
2023-03-31T08:31:19.650Z,4.35
2023-03-31T08:33:47.769Z,3.75
2023-03-31T08:36:15.288Z,3.65
2023-03-31T08:38:48.084Z,4.25
2023-03-31T08:41:41.931Z,3.17
2023-03-31T08:44:19.612Z,3.83
2023-03-31T08:46:49.197Z,4.13
2023-03-31T08:49:19.783Z,4.40
2023-03-31T08:52:04.421Z,3.92
2023-03-31T08:54:33.846Z,3.45
2023-03-31T08:57:04.037Z,3.83
2023-03-31T08:59:35.977Z,3.08
2023-03-31T09:02:34.940Z,3.85
2023-03-31T09:05:22.871Z,3.40
2023-03-31T09:08:14.941Z,3.47
2023-03-31T09:11:00.930Z,2.95
2023-03-31T09:14:01.859Z,4.07
2023-03-31T09:17:09.147Z,2.65
2023-03-31T09:19:41.870Z,3.92
2023-03-31T09:22:42.062Z,3.90
2023-03-31T09:25:19.125Z,3.58
2023-03-31T09:30:32.516Z,3.60
2023-03-31T09:33:17.523Z,4.00
2023-03-31T09:35:46.564Z,4.55
2023-03-31T09:38:19.688Z,4.03
2023-03-31T09:40:48.227Z,3.13
2023-03-31T09:43:26.692Z,3.75
2023-03-31T09:46:08.431Z,3.45
2023-03-31T09:48:39.130Z,4.53
2023-03-31T09:51:14.692Z,3.63
2023-03-31T09:53:51.452Z,4.15
2023-03-31T09:56:44.226Z,3.40
2023-03-31T09:59:22.966Z,3.22
2023-03-31T10:01:53.550Z,3.47
2023-03-31T10:04:24.301Z,3.25
2023-03-31T10:06:53.705Z,3.13
2023-03-31T10:09:26.602Z,4.07
2023-03-31T10:12:02.999Z,3.53
2023-03-31T10:14:48.976Z,2.67
2023-03-31T10:17:27.890Z,3.03
2023-03-31T10:20:06.844Z,3.35
2023-03-31T10:22:36.921Z,3.40
2023-03-31T10:25:14.799Z,2.50
2023-03-31T10:27:52.205Z,3.13
2023-03-31T10:30:35.677Z,2.78
2023-03-31T10:33:22.264Z,3.42
2023-03-31T10:35:56.316Z,3.45
2023-03-31T10:38:32.032Z,3.22
2023-03-31T10:41:00.251Z,3.50
2023-03-31T10:43:48.057Z,2.92
2023-03-31T10:46:15.693Z,2.95
2023-03-31T10:48:45.084Z,3.05
2023-03-31T10:51:17.161Z,3.17
2023-03-31T10:53:53.108Z,3.55
2023-03-31T10:56:41.832Z,3.55
2023-03-31T10:59:30.003Z,3.53
2023-03-31T11:02:12.494Z,3.08
2023-03-31T11:04:49.094Z,3.13
2023-03-31T11:07:45.735Z,3.72
2023-03-31T11:13:18.958Z,3.90
2023-03-31T11:15:54.356Z,3.08
2023-03-31T11:18:46.803Z,4.03
2023-03-31T11:21:24.768Z,3.13
2023-03-31T11:24:10.162Z,3.03
2023-03-31T11:27:12.904Z,3.83
2023-03-31T11:29:57.442Z,3.22
2023-03-31T11:32:38.770Z,3.00
2023-03-31T11:35:18.958Z,2.85
2023-03-31T11:38:11.628Z,2.60
2023-03-31T11:41:02.587Z,2.38
2023-03-31T11:43:50.529Z,2.08
2023-03-31T11:46:25.625Z,2.17
2023-03-31T11:48:59.324Z,2.00
2023-03-31T11:51:34.149Z,2.05
2023-03-31T11:54:06.648Z,2.25
2023-03-31T11:56:38.218Z,2.53
2023-03-31T11:59:07.401Z,2.63
2023-03-31T12:02:02.683Z,2.25
2023-03-31T12:04:48.860Z,2.67
2023-03-31T12:08:01.030Z,3.17
2023-03-31T12:10:37.485Z,2.97
2023-03-31T12:13:41.729Z,3.00
2023-03-31T12:16:18.509Z,2.65
2023-03-31T12:19:11.583Z,2.78
2023-03-31T12:21:44.587Z,3.45
2023-03-31T12:24:13.899Z,2.22
2023-03-31T12:26:57.652Z,2.75
2023-03-31T12:29:39.224Z,2.88
2023-03-31T12:32:18.720Z,2.60
2023-03-31T12:34:57.782Z,2.92
2023-03-31T12:37:51.958Z,1.90
2023-03-31T12:40:53.193Z,2.25
2023-03-31T12:43:29.837Z,2.30
2023-03-31T12:46:11.493Z,2.17
2023-03-31T12:49:10.433Z,2.90
2023-03-31T12:52:07.552Z,2.40
2023-03-31T12:54:38.165Z,2.45
2023-03-31T12:57:26.807Z,2.30
2023-03-31T13:00:25.697Z,2.70
2023-03-31T13:03:37.054Z,3.08
2023-03-31T13:06:05.956Z,3.55
2023-03-31T13:08:50.119Z,2.80
2023-03-31T13:11:19.931Z,3.58
2023-03-31T13:14:02.757Z,3.38
2023-03-31T13:16:32.314Z,3.40
2023-03-31T13:19:00.508Z,2.60
2023-03-31T13:21:28.218Z,2.60
2023-03-31T13:24:01.302Z,2.60
2023-03-31T13:26:38.802Z,2.63
2023-03-31T13:29:12.364Z,2.63
2023-03-31T13:32:01.919Z,2.80
2023-03-31T13:34:44.258Z,2.22
2023-03-31T13:37:37.673Z,2.33
2023-03-31T13:40:33.254Z,1.60
2023-03-31T13:43:25.046Z,1.95
2023-03-31T13:46:23.593Z,2.00
2023-03-31T13:49:12.363Z,2.20
2023-03-31T13:52:04.693Z,2.28
2023-03-31T13:55:13.888Z,2.17
2023-03-31T13:58:34.107Z,2.30
2023-03-31T14:01:14.752Z,2.30
2023-03-31T14:04:01.089Z,1.88
2023-03-31T14:06:44.783Z,2.00
2023-03-31T14:09:35.094Z,3.05
2023-03-31T14:12:35.564Z,2.28
2023-03-31T14:15:04.216Z,2.40
2023-03-31T14:17:40.433Z,3.00
2023-03-31T14:20:26.100Z,2.72
2023-03-31T14:23:18.300Z,2.08
2023-03-31T14:26:04.000Z,1.50
2023-03-31T14:29:01.330Z,1.35
2023-03-31T14:31:38.655Z,1.83
2023-03-31T14:34:12.764Z,1.45
2023-03-31T14:37:00.679Z,1.73
2023-03-31T14:39:52.480Z,1.95
2023-03-31T14:42:25.591Z,2.22
2023-03-31T14:45:04.141Z,2.13
2023-03-31T14:47:32.025Z,1.85
2023-03-31T14:50:15.060Z,2.20
2023-03-31T14:52:48.372Z,2.58
2023-03-31T14:55:17.723Z,2.47
2023-03-31T14:57:47.488Z,2.50
2023-03-31T15:00:22.829Z,2.65
2023-03-31T15:02:50.719Z,2.25
2023-03-31T15:05:29.696Z,2.20
2023-03-31T15:08:18.553Z,3.35
2023-03-31T15:10:54.110Z,2.13
2023-03-31T15:13:31.498Z,2.30
2023-03-31T15:15:59.546Z,2.55
2023-03-31T15:18:28.171Z,2.50
2023-03-31T15:20:55.721Z,2.90
2023-03-31T15:23:28.527Z,1.88
2023-03-31T15:25:57.751Z,2.83
2023-03-31T15:28:28.891Z,2.13
2023-03-31T15:31:09.042Z,2.63
2023-03-31T15:36:30.982Z,2.63
2023-03-31T15:38:59.590Z,2.05
2023-03-31T15:41:30.970Z,2.10
2023-03-31T15:44:27.467Z,2.15
2023-03-31T15:47:06.461Z,2.35
2023-03-31T15:49:35.356Z,2.17
2023-03-31T15:52:03.383Z,2.15
2023-03-31T15:54:38.081Z,3.00
2023-03-31T15:57:07.468Z,2.08
2023-03-31T16:02:46.435Z,2.33
2023-03-31T16:05:53.502Z,2.35
2023-03-31T16:08:38.893Z,2.03
2023-03-31T16:11:13.677Z,2.80
2023-03-31T16:13:34.612Z,1.77
2023-03-31T16:13:46.015Z,2.53
2023-03-31T16:16:19.605Z,2.30
2023-03-31T16:18:51.204Z,2.63
2023-03-31T16:21:30.988Z,3.05
2023-03-31T16:24:00.025Z,2.22
2023-03-31T16:26:28.507Z,2.88
2023-03-31T16:28:57.765Z,2.60
2023-03-31T16:31:35.367Z,2.40
2023-03-31T16:34:06.489Z,2.53
2023-03-31T16:36:34.684Z,3.45
2023-03-31T16:39:05.096Z,2.40
2023-03-31T16:41:33.952Z,3.80
2023-03-31T16:44:01.570Z,2.53
2023-03-31T16:46:29.371Z,2.58
2023-03-31T16:48:57.020Z,3.22
2023-03-31T16:51:24.833Z,2.25
2023-03-31T16:53:52.473Z,3.08
2023-03-31T16:56:20.231Z,2.55
2023-03-31T16:58:47.738Z,2.45
2023-03-31T17:01:15.685Z,2.55
2023-03-31T17:03:43.233Z,2.78
2023-03-31T17:06:13.161Z,2.28
2023-03-31T17:08:40.958Z,2.15
2023-03-31T17:11:14.452Z,2.38
2023-03-31T17:13:43.514Z,2.25
2023-03-31T17:18:42.492Z,2.25
2023-03-31T17:21:15.362Z,2.60
2023-03-31T17:23:43.409Z,2.40
2023-03-31T17:26:12.904Z,3.05
2023-03-31T17:28:41.807Z,2.47
2023-03-31T17:31:20.589Z,2.28
2023-03-31T17:33:48.462Z,2.83
2023-03-31T17:36:16.876Z,3.00
2023-03-31T17:38:45.276Z,1.70
2023-03-31T17:41:13.827Z,2.15
2023-03-31T17:43:45.507Z,1.95
2023-03-31T17:46:13.645Z,3.33
2023-03-31T17:48:42.177Z,2.67
2023-03-31T17:51:14.313Z,2.40
2023-03-31T17:53:45.183Z,2.38
2023-03-31T17:56:14.554Z,2.50
2023-03-31T17:58:42.564Z,2.40
2023-03-31T18:01:12.169Z,2.38
2023-03-31T18:03:41.310Z,2.38
2023-03-31T18:06:11.861Z,2.50
2023-03-31T18:08:40.449Z,3.30
2023-03-31T18:11:09.280Z,2.30
2023-03-31T18:13:37.731Z,2.60
2023-03-31T18:16:09.574Z,3.13
2023-03-31T18:18:37.969Z,3.22
2023-03-31T18:21:07.768Z,2.65
2023-03-31T18:23:36.613Z,3.20
2023-03-31T18:26:08.911Z,3.20
2023-03-31T18:28:36.531Z,2.50
2023-03-31T18:31:05.516Z,2.40
2023-03-31T18:33:33.341Z,2.90
2023-03-31T18:36:01.953Z,2.58
2023-03-31T18:38:29.843Z,2.55
2023-03-31T18:40:57.844Z,2.55
2023-03-31T18:43:26.142Z,2.22
2023-03-31T18:45:56.533Z,2.72
2023-03-31T18:48:25.302Z,2.17
2023-03-31T18:50:53.761Z,2.88
2023-03-31T18:53:23.331Z,2.50
2023-03-31T18:56:00.557Z,2.30
2023-03-31T18:58:30.225Z,2.97
2023-03-31T19:00:59.216Z,3.33
2023-03-31T19:03:27.748Z,2.90
2023-03-31T19:06:10.278Z,3.38
2023-03-31T19:08:38.461Z,3.03
2023-03-31T19:11:09.508Z,2.97
2023-03-31T19:13:38.369Z,3.20
2023-03-31T19:16:06.285Z,2.88
2023-03-31T19:18:33.928Z,3.33
2023-03-31T19:21:02.149Z,2.38
2023-03-31T19:23:30.583Z,3.30
2023-03-31T19:25:58.356Z,2.45
2023-03-31T19:28:27.567Z,2.72
2023-03-31T19:30:58.612Z,2.00
2023-03-31T19:33:26.873Z,2.20
2023-03-31T19:35:55.003Z,1.90
2023-03-31T19:38:23.237Z,2.20
2023-03-31T19:40:51.073Z,2.70
2023-03-31T19:43:24.191Z,2.22
2023-03-31T19:45:53.413Z,2.13
2023-03-31T19:48:21.509Z,2.58
2023-03-31T19:51:00.779Z,2.03
2023-03-31T19:53:28.704Z,1.95
2023-03-31T19:56:10.265Z,2.00
2023-03-31T19:58:38.742Z,2.38
2023-03-31T20:01:09.420Z,2.70
2023-03-31T20:03:37.250Z,2.63
2023-03-31T20:06:10.168Z,2.50
2023-03-31T20:08:38.506Z,3.20
2023-03-31T20:11:07.800Z,2.67
2023-03-31T20:13:38.566Z,2.60
2023-03-31T20:16:07.922Z,2.47
2023-03-31T20:18:36.841Z,2.83
2023-03-31T20:21:13.992Z,2.85
2023-03-31T20:23:43.028Z,2.90
2023-03-31T20:26:13.917Z,3.50
2023-03-31T20:28:42.690Z,3.00
2023-03-31T20:31:13.554Z,3.25
2023-03-31T20:33:42.348Z,3.00
2023-03-31T20:36:13.677Z,3.55
2023-03-31T20:38:44.349Z,3.33
2023-03-31T20:41:13.661Z,3.20
2023-03-31T20:43:41.323Z,3.00
2023-03-31T20:46:10.444Z,3.63
2023-03-31T20:48:43.464Z,2.67
2023-03-31T20:51:14.450Z,3.42
2023-03-31T20:53:47.786Z,2.72
2023-03-31T20:56:20.895Z,3.72
2023-03-31T20:58:49.928Z,3.50
2023-03-31T21:01:20.745Z,3.47
2023-03-31T21:03:49.171Z,3.22
2023-03-31T21:06:18.668Z,3.05
2023-03-31T21:08:51.654Z,3.10
2023-03-31T21:11:19.594Z,3.15
2023-03-31T21:13:48.885Z,2.65
2023-03-31T21:16:17.628Z,2.75
2023-03-31T21:18:45.270Z,2.65
2023-03-31T21:21:14.987Z,3.63
2023-03-31T21:23:42.477Z,2.83
2023-03-31T21:26:13.268Z,2.88
2023-03-31T21:28:40.775Z,2.40
2023-03-31T21:31:10.945Z,2.80
2023-03-31T21:33:41.749Z,2.67
2023-03-31T21:36:13.579Z,2.53
2023-03-31T21:38:41.523Z,2.55
2023-03-31T21:41:15.140Z,2.70
2023-03-31T21:43:43.379Z,2.30
2023-03-31T21:46:16.615Z,2.72
2023-03-31T21:48:44.543Z,2.97
2023-03-31T21:51:12.067Z,2.42
2023-03-31T21:53:39.772Z,2.17
2023-03-31T21:56:07.551Z,2.55
2023-03-31T21:58:35.251Z,2.10
2023-03-31T22:01:04.173Z,2.17
2023-03-31T22:03:34.485Z,2.55
2023-03-31T22:06:04.292Z,2.83
2023-03-31T22:08:32.141Z,2.28
2023-03-31T22:11:00.608Z,2.00
2023-03-31T22:13:29.342Z,2.45
2023-03-31T22:15:57.076Z,2.08
2023-03-31T22:18:24.603Z,2.58
2023-03-31T22:20:52.735Z,2.05
2023-03-31T22:23:23.500Z,3.15
2023-03-31T22:25:51.094Z,2.20
2023-03-31T22:28:18.605Z,2.42
2023-03-31T22:30:46.026Z,2.15
2023-03-31T22:35:40.974Z,2.08
2023-03-31T22:38:08.743Z,2.78
2023-03-31T22:40:36.964Z,3.30
2023-03-31T22:43:04.920Z,1.98
2023-03-31T22:45:32.651Z,1.65
2023-03-31T22:48:00.579Z,1.67
2023-03-31T22:50:29.044Z,1.95
2023-03-31T22:52:56.775Z,2.20
2023-03-31T22:55:24.257Z,2.03
2023-03-31T23:00:19.478Z,3.35
2023-03-31T23:02:47.083Z,2.03
2023-03-31T23:05:14.681Z,1.77
2023-03-31T23:07:42.270Z,2.85
2023-03-31T23:10:09.907Z,1.85
2023-03-31T23:12:37.478Z,2.22
2023-03-31T23:15:05.496Z,2.08
2023-03-31T23:17:32.848Z,2.28
2023-03-31T23:20:00.777Z,1.90
2023-03-31T23:22:28.350Z,1.77
2023-03-31T23:24:56.103Z,1.60
2023-03-31T23:27:23.634Z,1.55
2023-03-31T23:29:51.373Z,2.40
2023-03-31T23:32:18.822Z,2.40
2023-03-31T23:34:46.464Z,1.80
2023-03-31T23:37:14.903Z,2.05
2023-03-31T23:39:42.570Z,2.35
2023-03-31T23:42:12.694Z,2.03
2023-03-31T23:44:40.094Z,2.03
2023-03-31T23:49:34.770Z,2.05
2023-03-31T23:52:02.373Z,2.30
2023-03-31T23:54:30.100Z,1.88
2023-03-31T23:56:58.232Z,2.58
2023-03-31T23:59:25.803Z,2.53
